Weather observations for the past three days for
Clinton Municipal Airport
Metric (Imperial)
Date Time (cdt) Wind (kph) Vis. (km) Weather Sky Cond. Temperature (ºC) Relative Humidity Wind Chill (°C) Heat Index (°C) Pressure Precipitation (cm)
Air Dwpt 6 hour altimeter (cm) sea level (mb) 1 hr 3 hr 6 hr
Max. Min.
08 15:56 SW 11 16.09 Partly Cloudy SCT090 20 2.2 31% 75.46 1006.4
08 14:56 Vrbl 9 16.09 Overcast OVC080 20.6 3.3 32% 75.54 1007.2
08 13:56 SE 13 16.09 Partly Cloudy SCT070 SCT085 18.9 3.3 36% 75.59 1008.1
08 12:56 Vrbl 9 16.09 Fair CLR 18.9 3.9 19.4 6.7 37% 75.64 1008.8
08 11:56 SW 7 16.09 Fair CLR 18.3 6.7 47% 75.72 1009.7
08 10:56 Vrbl 6 16.09 Fair CLR 17.8 8.9 56% 75.74 1010.0
08 09:56 Vrbl 9 16.09 Fair CLR 16.1 8.9 63% 75.77 1010.6
08 08:56 Vrbl 7 16.09 Fair CLR 13.9 8.9 72% 75.79 1010.9
08 07:56 E 11 16.09 Fair CLR 11.1 5 66% 75.79 1010.8
08 06:56 NE 7 16.09 Fair CLR 6.7 2.2 8.3 5 73% 6 75.79 1011.0
08 05:56 SE 7 16.09 Fair CLR 6.1 -0.6 63% 5 75.77 1010.6
08 04:56 E 11 16.09 Overcast BKN070 OVC100 7.8 -0.6 56% 6 75.77 1010.4
08 03:56 E 13 16.09 Mostly Cloudy SCT070 BKN110 7.8 0.6 61% 6 75.79 1011.0
08 02:56 E 17 16.09 Fair CLR 5.6 2.2 79% 3 75.84 1011.5
08 01:56 E 9 16.09 Partly Cloudy FEW085 SCT120 6.1 1.1 71% 4 75.9 1012.2
08 00:56 N 11 16.09 Partly Cloudy SCT120 7.2 2.8 17.8 6.7 74% 5 75.9 1012.3
07 23:56 NW 7 16.09 Mostly Cloudy SCT085 BKN110 10 3.9 66% 9 75.9 1012.1
07 22:56 W 7 16.09 Fair CLR 11.7 3.3 57% 75.87 1011.8
07 21:56 W 9 16.09 Fair CLR 10.6 2.8 59% 75.84 1011.5
07 20:56 SW 6 16.09 Overcast OVC095 12.8 0.6 44% 75.77 1010.7
07 19:56 W 13 16.09 A Few Clouds FEW100 14.4 1.7 42% 75.74 1010.4
07 18:56 W 24 16.09 A Few Clouds FEW080 17.8 1.1 18.9 15 33% 75.72 1010.0
07 17:56 W 28 16.09 Mostly Cloudy SCT075 BKN090 17.8 1.1 33% 75.72 1010.0
07 16:56 W 22 G 35 14.48 Overcast FEW028 SCT055 OVC080 17.8 2.2 35% 75.74 1010.5
07 15:56 W 43 G 50 16.09 Overcast and Windy FEW037 BKN070 OVC090 16.7 0.6 34% 75.74 1010.2
07 14:56 W 31 16.09 Partly Cloudy FEW060 SCT080 SCT095 16.1 2.2 39% 75.79 1011.1
07 13:56 W 37 G 50 16.09 Fair and Breezy CLR 17.2 2.8 38% 75.82 1011.3
07 12:56 W 44 G 52 14.48 Fair and Windy CLR 16.1 4.4 16.1 0.6 46% 75.87 1012.2
07 11:56 W 46 G 57 16.09 Fair and Windy CLR 13.3 3.9 53% 75.95 1012.9
07 10:56 W 26 16.09 Fair CLR 13.3 3.3 51% 75.97 1013.2
07 09:56 SW 37 G 48 16.09 Overcast and Breezy BKN090 OVC110 13.3 0 40% 76 1013.8
07 08:56 SE 9 16.09 A Few Clouds FEW095 8.9 1.7 61% 8 76.07 1014.6
07 07:56 SE 13 16.09 Partly Cloudy FEW090 SCT110 6.1 0.6 68% 4 76.1 1015.2
07 06:56 E 11 16.09 Fair CLR 0 -1.7 3.3 -0.6 88% -3 76.12 1015.7
07 05:56 SE 7 16.09 Fair CLR -0.6 -2.8 85% -3 76.12 1015.5
07 04:56 SE 9 16.09 Fair CLR 1.7 -0.6 85% -1 76.15 1015.8
07 03:56 SE 7 16.09 Fair CLR 1.7 -0.6 85% -0 76.17 1016.1
07 02:56 SE 6 16.09 Fair CLR 1.1 -3.9 70% 76.2 1016.4
07 01:56 Calm 16.09 Fair CLR 2.2 -3.9 64% 76.23 1017.0
07 00:56 Calm 16.09 Fair CLR 3.3 -4.4 11.1 2.8 57% 76.25 1017.4
06 23:56 Calm 16.09 Fair CLR 2.8 -3.9 62% 76.25 1017.3
06 22:56 N 7 16.09 Fair CLR 3.3 -3.9 60% 2 76.25 1017.2
06 21:56 N 11 16.09 Fair CLR 5 -3.9 53% 3 76.25 1017.3
06 20:56 NW 9 16.09 Fair CLR 7.2 -4.4 44% 6 76.23 1016.7
06 19:56 NW 17 16.09 A Few Clouds FEW070 8.9 -3.9 41% 7 76.17 1016.3
06 18:56 NW 30 16.09 A Few Clouds FEW075 11.1 -4.4 13.3 11.1 34% 76.17 1016.3
06 17:56 NW 33 16.09 Overcast and Breezy OVC075 12.2 -4.4 31% 76.17 1016.3
06 16:56 NW 26 G 43 16.09 Overcast OVC070 11.7 -4.4 32% 76.2 1016.6
06 15:56 NW 41 G 48 16.09 Mostly Cloudy and Breezy BKN070 12.2 -5 30% 76.17 1016.4
06 14:56 NW 39 G 50 16.09 Partly Cloudy and Breezy SCT070 12.8 -4.4 30% 76.2 1016.4
06 13:56 NW 41 G 52 16.09 A Few Clouds and Breezy FEW070 13.3 -3.3 32% 76.17 1016.2
06 12:56 NW 48 G 56 16.09 A Few Clouds and Windy FEW065 12.2 -3.3 12.2 4.4 34% 76.17 1016.1
06 11:56 NW 35 G 48 16.09 A Few Clouds and Breezy FEW060 12.2 -3.9 33% 76.2 1016.4
06 10:56 NW 28 G 43 16.09 Fair CLR 11.7 -3.9 34% 76.23 1016.6
06 09:56 NW 30 G 41 16.09 Fair CLR 10.6 -4.4 35% 76.2 1016.3
06 08:56 NW 24 16.09 Fair CLR 8.9 -3.3 42% 6 76.2 1016.5
06 07:56 NW 19 16.09 Fair CLR 7.2 -0.6 58% 4 76.17 1016.2
06 06:56 NW 17 16.09 Fair CLR 5 -1.1 5 1.1 65% 2 76.1 1015.1
06 05:56 NW 13 16.09 Fair CLR 2.2 -2.2 73% -1 76.02 1014.1
06 04:56 NW 11 16.09 Fair CLR 1.7 -1.7 78% -1 76.02 1014.0
06 03:56 N 13 16.09 Fair CLR 2.8 -1.7 73% -0 75.97 1013.4
06 02:56 NW 11 16.09 Fair CLR 3.3 -1.7 70% 1 75.97 1013.5
06 01:56 N 11 16.09 Fair CLR 3.9 -1.1 70% 1 75.95 1013.0
06 00:56 N 13 16.09 Fair CLR 4.4 -1.1 13.9 4.4 68% 2 75.95 1013.1
05 23:56 N 13 16.09 Fair CLR 6.7 -0.6 60% 4 75.92 1012.8
05 22:56 N 13 16.09 Fair CLR 6.7 -0.6 60% 4 75.9 1012.4
05 21:56 N 15 16.09 Fair CLR 8.3 -0.6 54% 6 75.84 1011.9
05 20:56 N 17 16.09 A Few Clouds FEW085 10.6 -1.1 45% 75.77 1010.8
05 19:56 NW 7 16.09 Fair CLR 12.2 -2.2 37% 75.72 1009.9
05 18:56 NW 13 16.09 Fair CLR 13.9 -3.3 15 12.2 30% 75.69 1009.6
05 17:56 NW 19 16.09 Fair CLR 14.4 -3.9 28% 75.69 1009.6
05 16:56 NW 19 16.09 Fair CLR 13.9 -3.3 30% 75.72 1010.1
Date Time (cdt) Wind (kph) Vis. (km) Weather Sky Cond. Air Dwpt Max. Min. Relative Humidity Wind Chill (°C) Heat Index (°C) altimeter (cm) sea level (mb) 1 hr 3 hr 6 hr
6 hour
Temperature (ºC) Pressure Precipitation (cm)